createdAt,value
2019-04-01T00:01:03.417Z,30.55
2019-04-01T00:03:32.490Z,31.97
2019-04-01T00:06:01.578Z,31.82
2019-04-01T00:08:30.581Z,34.45
2019-04-01T00:10:59.673Z,32.30
2019-04-01T00:13:28.603Z,31.23
2019-04-01T00:15:57.693Z,33.80
2019-04-01T00:18:26.653Z,33.20
2019-04-01T00:20:55.660Z,33.92
2019-04-01T00:23:24.648Z,34.92
2019-04-01T00:25:53.743Z,33.05
2019-04-01T00:28:22.643Z,36.15
2019-04-01T00:30:52.652Z,35.65
2019-04-01T00:33:21.638Z,36.03
2019-04-01T00:35:50.705Z,37.03
2019-04-01T00:38:19.719Z,36.25
2019-04-01T00:40:48.715Z,34.25
2019-04-01T00:43:39.880Z,35.45
2019-04-01T00:46:10.373Z,34.63
2019-04-01T00:48:39.366Z,34.33
2019-04-01T00:51:08.420Z,33.60
2019-04-01T00:53:37.383Z,35.58
2019-04-01T00:56:06.453Z,36.58
2019-04-01T00:58:35.382Z,36.55
2019-04-01T01:01:05.814Z,36.08
2019-04-01T01:03:34.966Z,36.88
2019-04-01T01:06:03.948Z,34.00
2019-04-01T01:08:33.021Z,34.95
2019-04-01T01:11:01.956Z,37.15
2019-04-01T01:13:31.001Z,35.33
2019-04-01T01:15:59.962Z,35.20
2019-04-01T01:18:28.899Z,36.25
2019-04-01T01:20:58.022Z,35.08
2019-04-01T01:23:27.057Z,34.40
2019-04-01T01:25:56.102Z,36.30
2019-04-01T01:28:25.069Z,36.30
2019-04-01T01:30:54.700Z,35.55
2019-04-01T01:33:23.694Z,36.40
2019-04-01T01:35:52.770Z,34.30
2019-04-01T01:38:21.787Z,36.38
2019-04-01T01:40:50.768Z,34.67
2019-04-01T01:43:19.715Z,34.73
2019-04-01T01:45:48.673Z,36.15
2019-04-01T01:48:17.643Z,36.50
2019-04-01T01:50:46.587Z,34.23
2019-04-01T01:53:15.519Z,35.15
2019-04-01T01:55:44.592Z,37.00
2019-04-01T01:58:13.526Z,34.20
2019-04-01T02:00:42.701Z,35.38
2019-04-01T02:03:11.700Z,35.08
2019-04-01T02:05:40.861Z,33.65
2019-04-01T02:08:09.906Z,33.28
2019-04-01T02:10:38.959Z,35.08
2019-04-01T02:13:07.919Z,34.40
2019-04-01T02:15:36.942Z,33.02
2019-04-01T02:18:05.991Z,34.03
2019-04-01T02:20:36.056Z,36.70
2019-04-01T02:23:05.184Z,34.85
2019-04-01T02:25:34.767Z,34.78
2019-04-01T02:28:03.701Z,33.80
2019-04-01T02:30:32.773Z,33.08
2019-04-01T02:33:01.753Z,35.00
2019-04-01T02:35:30.837Z,33.35
2019-04-01T02:37:59.786Z,31.42
2019-04-01T02:40:28.836Z,31.62
2019-04-01T02:42:58.086Z,31.42
2019-04-01T02:45:27.050Z,32.05
2019-04-01T02:47:56.087Z,34.85
2019-04-01T02:50:25.158Z,31.68
2019-04-01T02:52:54.184Z,32.65
2019-04-01T02:55:23.200Z,33.38
2019-04-01T02:57:52.334Z,35.10
2019-04-01T03:00:21.487Z,34.20
2019-04-01T03:02:50.586Z,33.28
2019-04-01T03:05:19.678Z,32.73
2019-04-01T03:07:48.777Z,33.70
2019-04-01T03:10:19.886Z,31.48
2019-04-01T03:12:48.832Z,32.38
2019-04-01T03:15:17.801Z,33.18
2019-04-01T03:17:46.810Z,33.63
2019-04-01T03:20:15.891Z,32.95
2019-04-01T03:22:44.932Z,30.62
2019-04-01T03:25:14.084Z,34.00
2019-04-01T03:27:43.142Z,32.25
2019-04-01T03:30:12.232Z,32.85
2019-04-01T03:32:45.107Z,32.67
2019-04-01T03:35:11.994Z,32.55
2019-04-01T03:37:41.065Z,32.33
2019-04-01T03:40:10.148Z,33.73
2019-04-01T03:42:39.095Z,30.30
2019-04-01T03:45:08.241Z,31.60
2019-04-01T03:47:37.258Z,33.35
2019-04-01T03:50:06.348Z,31.30
2019-04-01T03:52:35.344Z,32.13
2019-04-01T03:55:04.617Z,33.48
2019-04-01T03:57:33.629Z,32.88
2019-04-01T04:00:02.698Z,34.33
2019-04-01T04:02:31.683Z,32.60
2019-04-01T04:05:00.653Z,32.48
2019-04-01T04:07:29.681Z,31.97
2019-04-01T04:10:02.877Z,31.48
2019-04-01T04:12:31.801Z,33.70
2019-04-01T04:15:00.695Z,32.80
2019-04-01T04:17:29.625Z,33.18
2019-04-01T04:19:58.543Z,31.42
2019-04-01T04:22:27.543Z,31.50
2019-04-01T04:24:56.697Z,32.28
2019-04-01T04:27:25.630Z,34.08
2019-04-01T04:29:54.786Z,31.97
2019-04-01T04:32:23.796Z,30.48
2019-04-01T04:34:56.899Z,30.43
2019-04-01T04:37:23.475Z,34.18
2019-04-01T04:39:52.603Z,30.88
2019-04-01T04:42:21.609Z,32.08
2019-04-01T04:44:50.544Z,34.75
2019-04-01T04:47:19.662Z,34.20
2019-04-01T04:49:48.725Z,32.75
2019-04-01T04:52:17.744Z,30.50
2019-04-01T04:54:47.018Z,32.65
2019-04-01T04:57:20.256Z,34.85
2019-04-01T04:59:47.573Z,32.88
2019-04-01T05:02:16.505Z,32.60
2019-04-01T05:04:45.409Z,32.90
2019-04-01T05:07:14.336Z,33.67
2019-04-01T05:09:43.398Z,32.83
2019-04-01T05:12:12.338Z,32.05
2019-04-01T05:14:41.424Z,31.68
2019-04-01T05:17:10.465Z,33.85
2019-04-01T05:19:39.473Z,33.00
2019-04-01T05:22:08.816Z,34.55
2019-04-01T05:24:38.015Z,33.90
2019-04-01T05:27:08.319Z,32.38
2019-04-01T05:29:38.796Z,32.50
2019-04-01T05:32:10.318Z,33.98
2019-04-01T05:34:41.456Z,35.15
2019-04-01T05:37:10.461Z,31.35
2019-04-01T05:39:39.480Z,32.65
2019-04-01T05:42:08.851Z,33.85
2019-04-01T05:44:38.050Z,31.30
2019-04-01T05:47:07.331Z,32.03
2019-04-01T05:49:37.716Z,32.15
2019-04-01T05:52:06.998Z,31.73
2019-04-01T05:54:36.111Z,31.97
2019-04-01T05:57:05.553Z,32.70
2019-04-01T05:59:34.634Z,32.58
2019-04-01T06:02:04.238Z,33.35
2019-04-01T06:04:33.233Z,33.23
2019-04-01T06:07:02.393Z,32.53
2019-04-01T06:09:31.465Z,31.05
2019-04-01T06:12:00.412Z,32.15
2019-04-01T06:14:29.445Z,33.28
2019-04-01T06:16:58.775Z,33.35
2019-04-01T06:19:28.282Z,32.45
2019-04-01T06:22:00.546Z,33.83
2019-04-01T06:24:29.665Z,34.38
2019-04-01T06:26:59.671Z,32.83
2019-04-01T06:29:28.637Z,32.20
2019-04-01T06:31:57.684Z,33.05
2019-04-01T06:34:26.844Z,31.12
2019-04-01T06:36:55.820Z,34.00
2019-04-01T06:39:24.815Z,33.05
2019-04-01T06:41:54.081Z,33.02
2019-04-01T06:44:23.060Z,31.15
2019-04-01T06:46:52.057Z,32.17
2019-04-01T06:49:21.062Z,32.10
2019-04-01T06:51:50.049Z,31.65
2019-04-01T06:54:19.135Z,34.03
2019-04-01T06:56:48.181Z,33.78
2019-04-01T06:59:18.297Z,31.02
2019-04-01T07:01:47.281Z,33.98
2019-04-01T07:04:16.215Z,30.65
2019-04-01T07:06:45.288Z,30.75
2019-04-01T07:09:14.318Z,33.35
2019-04-01T07:11:43.423Z,33.30
2019-04-01T07:14:12.569Z,31.82
2019-04-01T07:16:41.796Z,33.28
2019-04-01T07:19:10.776Z,33.00
2019-04-01T07:21:39.787Z,33.25
2019-04-01T07:24:08.734Z,35.70
2019-04-01T07:26:37.747Z,32.17
2019-04-01T07:29:06.836Z,30.95
2019-04-01T07:31:35.848Z,33.90
2019-04-01T07:34:04.794Z,29.87
2019-04-01T07:36:33.718Z,31.42
2019-04-01T07:39:03.633Z,32.73
2019-04-01T07:41:32.644Z,32.50
2019-04-01T07:44:02.574Z,32.13
2019-04-01T07:46:31.516Z,32.10
2019-04-01T07:49:00.534Z,35.88
2019-04-01T07:51:29.571Z,32.78
2019-04-01T07:53:58.570Z,31.60
2019-04-01T07:56:27.590Z,32.58
2019-04-01T07:58:56.581Z,30.75
2019-04-01T08:01:25.516Z,33.73
2019-04-01T08:03:54.437Z,31.27
2019-04-01T08:06:23.443Z,33.70
2019-04-01T08:08:52.471Z,31.23
2019-04-01T08:11:21.386Z,31.77
2019-04-01T08:13:50.385Z,32.20
2019-04-01T08:16:20.384Z,32.80
2019-04-01T08:18:49.438Z,31.95
2019-04-01T08:21:18.434Z,31.77
2019-04-01T08:23:47.440Z,31.37
2019-04-01T08:26:16.449Z,32.85
2019-04-01T08:28:45.496Z,32.70
2019-04-01T08:31:14.499Z,33.50
2019-04-01T08:33:43.514Z,31.82
2019-04-01T08:36:12.513Z,32.27
2019-04-01T08:38:41.551Z,32.40
2019-04-01T08:41:10.549Z,32.17
2019-04-01T08:43:39.628Z,30.47
2019-04-01T08:46:08.653Z,33.13
2019-04-01T08:48:37.710Z,32.20
2019-04-01T08:51:06.727Z,31.90
2019-04-01T08:53:35.861Z,31.80
2019-04-01T08:56:04.993Z,31.93
2019-04-01T08:58:33.965Z,30.80
2019-04-01T09:01:03.046Z,31.13
2019-04-01T09:03:32.048Z,31.65
2019-04-01T09:06:01.557Z,29.63
2019-04-01T09:08:31.164Z,30.27
2019-04-01T09:11:00.585Z,33.63
2019-04-01T09:13:29.884Z,32.65
2019-04-01T09:15:59.902Z,31.77
2019-04-01T09:18:28.812Z,32.90
2019-04-01T09:20:57.843Z,30.57
2019-04-01T09:23:26.809Z,30.63
2019-04-01T09:25:55.905Z,31.70
2019-04-01T09:28:24.818Z,29.47
2019-04-01T09:30:53.713Z,31.12
2019-04-01T09:33:22.721Z,29.80
2019-04-01T09:35:51.764Z,32.50
2019-04-01T09:38:20.791Z,27.70
2019-04-01T09:40:49.829Z,31.80
2019-04-01T09:43:18.818Z,29.60
2019-04-01T09:45:47.886Z,31.70
2019-04-01T09:48:16.790Z,32.90
2019-04-01T09:50:45.890Z,31.03
2019-04-01T09:53:14.941Z,30.80
2019-04-01T09:55:43.979Z,32.07
2019-04-01T09:58:13.014Z,31.53
2019-04-01T10:00:42.077Z,30.37
2019-04-01T10:03:11.096Z,29.90
2019-04-01T10:05:40.051Z,31.27
2019-04-01T10:08:08.977Z,31.10
2019-04-01T10:10:37.972Z,31.30
2019-04-01T10:13:06.938Z,31.97
2019-04-01T10:15:35.854Z,29.90
2019-04-01T10:18:04.894Z,32.47
2019-04-01T10:20:33.826Z,31.17
2019-04-01T10:23:02.821Z,33.00
2019-04-01T10:25:31.841Z,30.13
2019-04-01T10:28:01.554Z,30.97
2019-04-01T10:30:30.623Z,33.40
2019-04-01T10:33:02.094Z,31.27
2019-04-01T10:35:30.286Z,30.83
2019-04-01T10:37:59.318Z,28.97
2019-04-01T10:40:28.348Z,28.03
2019-04-01T10:42:57.378Z,28.13
2019-04-01T10:45:26.404Z,29.17
2019-04-01T10:47:55.427Z,30.30
2019-04-01T10:50:24.598Z,30.93
2019-04-01T10:52:53.809Z,29.00
2019-04-01T10:55:22.827Z,29.77
2019-04-01T10:57:53.865Z,27.30
2019-04-01T11:00:22.700Z,28.23
2019-04-01T11:02:51.803Z,29.00
2019-04-01T11:05:20.912Z,29.23
2019-04-01T11:07:49.998Z,30.10
2019-04-01T11:10:19.194Z,30.20
2019-04-01T11:12:48.239Z,30.10
2019-04-01T11:15:18.206Z,28.07
2019-04-01T11:17:47.214Z,29.27
2019-04-01T11:20:16.231Z,29.50
2019-04-01T11:22:45.254Z,29.57
2019-04-01T11:25:14.255Z,28.10
2019-04-01T11:27:43.274Z,28.50
2019-04-01T11:30:13.840Z,28.40
2019-04-01T11:32:43.170Z,29.53
2019-04-01T11:35:12.297Z,28.07
2019-04-01T11:37:41.669Z,27.50
2019-04-01T11:40:12.265Z,26.27
2019-04-01T11:42:41.600Z,27.33
2019-04-01T11:45:10.860Z,29.20
2019-04-01T11:47:40.020Z,27.40
2019-04-01T11:50:09.212Z,26.87
2019-04-01T11:52:38.549Z,28.10
2019-04-01T11:55:09.176Z,26.20
2019-04-01T11:57:38.736Z,26.90
2019-04-01T12:00:13.260Z,25.07
2019-04-01T12:02:42.641Z,24.00
2019-04-01T12:05:11.832Z,24.67
2019-04-01T12:07:40.938Z,25.40
2019-04-01T12:10:10.922Z,25.20
2019-04-01T12:12:40.878Z,23.43
2019-04-01T12:15:12.257Z,24.57
2019-04-01T12:17:41.691Z,24.73
2019-04-01T12:20:11.339Z,26.83
2019-04-01T12:22:45.235Z,25.40
2019-04-01T12:25:12.098Z,25.53
2019-04-01T12:27:41.172Z,23.43
2019-04-01T12:30:10.360Z,24.90
2019-04-01T12:32:39.464Z,27.07
2019-04-01T12:35:08.558Z,24.17
2019-04-01T12:37:37.642Z,25.53
2019-04-01T12:40:07.897Z,24.47
2019-04-01T12:42:36.941Z,22.83
2019-04-01T12:45:06.829Z,22.57
2019-04-01T12:47:35.833Z,22.00
2019-04-01T12:50:05.114Z,21.77
2019-04-01T12:52:34.163Z,21.20
2019-04-01T12:55:03.378Z,22.50
2019-04-01T12:57:32.470Z,20.87
2019-04-01T13:00:01.603Z,21.50
2019-04-01T13:02:30.630Z,19.87
2019-04-01T13:04:59.657Z,21.97
2019-04-01T13:07:28.738Z,20.40
2019-04-01T13:09:57.862Z,20.70
2019-04-01T13:12:27.543Z,21.53
2019-04-01T13:14:56.882Z,21.70
2019-04-01T13:17:25.841Z,22.33
2019-04-01T13:19:54.785Z,21.00
2019-04-01T13:22:23.785Z,22.70
2019-04-01T13:24:52.715Z,22.37
2019-04-01T13:27:21.825Z,21.40
2019-04-01T13:29:50.740Z,21.03
2019-04-01T13:32:20.571Z,21.23
2019-04-01T13:34:49.609Z,22.47
2019-04-01T13:37:18.699Z,23.00
2019-04-01T13:39:47.648Z,21.27
2019-04-01T13:42:16.960Z,24.13
2019-04-01T13:44:45.888Z,23.77
2019-04-01T13:47:14.923Z,23.80
2019-04-01T13:49:43.904Z,22.20
2019-04-01T13:52:12.909Z,22.33
2019-04-01T13:54:41.976Z,22.90
2019-04-01T13:57:10.976Z,24.40
2019-04-01T13:59:49.139Z,22.67
2019-04-01T14:02:10.752Z,22.53
2019-04-01T14:04:39.873Z,22.10
2019-04-01T14:07:08.889Z,23.83
2019-04-01T14:09:37.891Z,23.93
2019-04-01T14:12:06.947Z,21.87
2019-04-01T14:14:36.969Z,22.00
2019-04-01T14:17:06.080Z,22.60
2019-04-01T14:19:34.978Z,22.70
2019-04-01T14:22:05.057Z,22.53
2019-04-01T14:24:34.007Z,20.20
2019-04-01T14:27:04.097Z,20.70
2019-04-01T14:29:32.933Z,21.50
2019-04-01T14:32:01.959Z,21.70
2019-04-01T14:34:31.049Z,20.10
2019-04-01T14:37:00.168Z,20.50
2019-04-01T14:39:30.487Z,20.87
2019-04-01T14:41:59.906Z,21.43
2019-04-01T14:44:28.967Z,19.10
2019-04-01T14:46:57.825Z,20.63
2019-04-01T14:49:26.760Z,20.27
2019-04-01T14:51:55.872Z,19.30
2019-04-01T14:54:24.730Z,18.53
2019-04-01T14:56:54.706Z,18.53
2019-04-01T14:59:23.746Z,18.27
2019-04-01T15:01:52.844Z,19.70
2019-04-01T15:04:21.864Z,18.90
2019-04-01T15:06:50.941Z,17.60
2019-04-01T15:09:23.318Z,18.30
2019-04-01T15:11:50.645Z,18.33
2019-04-01T15:14:19.528Z,18.93
2019-04-01T15:16:48.478Z,18.57
2019-04-01T15:19:17.459Z,18.10
2019-04-01T15:21:47.505Z,19.90
2019-04-01T15:24:16.425Z,18.10
2019-04-01T15:26:45.422Z,17.80
2019-04-01T15:29:16.603Z,20.20
2019-04-01T15:31:45.540Z,17.77
2019-04-01T15:34:14.464Z,18.97
2019-04-01T15:36:43.408Z,18.30
2019-04-01T15:39:14.315Z,18.70
2019-04-01T15:41:43.270Z,18.83
2019-04-01T15:44:12.249Z,18.47
2019-04-01T15:46:41.202Z,17.73
2019-04-01T15:49:11.437Z,18.27
2019-04-01T15:51:40.644Z,18.83
2019-04-01T15:54:09.574Z,19.77
2019-04-01T15:56:41.803Z,19.67
2019-04-01T15:59:10.381Z,18.57
2019-04-01T16:01:39.362Z,18.10
2019-04-01T16:04:08.654Z,17.37
2019-04-01T16:06:38.938Z,20.23
2019-04-01T16:09:08.327Z,18.53
2019-04-01T16:11:37.278Z,18.53
2019-04-01T16:14:06.366Z,17.73
2019-04-01T16:16:36.181Z,19.43
2019-04-01T16:19:05.272Z,18.33
2019-04-01T16:21:34.270Z,18.30
2019-04-01T16:24:03.232Z,17.80
2019-04-01T16:26:32.220Z,16.17
2019-04-01T16:29:01.144Z,18.57
2019-04-01T16:31:30.138Z,17.60
2019-04-01T16:33:59.221Z,18.43
2019-04-01T16:36:28.192Z,16.90
2019-04-01T16:38:57.234Z,17.97
2019-04-01T16:41:26.310Z,20.37
2019-04-01T16:43:55.405Z,17.20
2019-04-01T16:46:24.483Z,20.13
2019-04-01T16:48:53.489Z,19.27
2019-04-01T16:51:22.549Z,17.00
2019-04-01T16:53:51.581Z,19.10
2019-04-01T16:56:20.512Z,17.33
2019-04-01T16:58:50.558Z,17.43
2019-04-01T17:01:19.705Z,18.33
2019-04-01T17:03:48.905Z,18.43
2019-04-01T17:06:18.268Z,17.10
2019-04-01T17:08:48.363Z,18.47
2019-04-01T17:11:17.672Z,19.43
2019-04-01T17:13:46.717Z,18.33
2019-04-01T17:16:16.734Z,19.67
2019-04-01T17:18:45.901Z,20.80
2019-04-01T17:21:14.981Z,20.10
2019-04-01T17:23:44.989Z,20.83
2019-04-01T17:26:14.132Z,21.67
2019-04-01T17:28:43.211Z,19.30
2019-04-01T17:31:19.116Z,21.53
2019-04-01T17:33:50.572Z,20.80
2019-04-01T17:36:21.567Z,22.53
2019-04-01T17:38:50.644Z,23.60
2019-04-01T17:41:19.909Z,24.60
2019-04-01T17:43:49.038Z,22.97
2019-04-01T17:46:18.115Z,21.27
2019-04-01T17:48:47.253Z,21.33
2019-04-01T17:51:16.276Z,22.60
2019-04-01T17:53:45.451Z,21.70
2019-04-01T17:56:14.591Z,22.27
2019-04-01T17:58:44.428Z,21.90
2019-04-01T18:01:13.740Z,23.10
2019-04-01T18:03:42.678Z,21.00
2019-04-01T18:06:11.681Z,20.80
2019-04-01T18:08:40.721Z,23.03
2019-04-01T18:11:09.687Z,22.80
2019-04-01T18:13:38.694Z,20.43
2019-04-01T18:16:07.761Z,22.03
2019-04-01T18:18:36.773Z,20.33
2019-04-01T18:21:05.785Z,20.47
2019-04-01T18:23:34.745Z,21.37
2019-04-01T18:26:03.650Z,20.67
2019-04-01T18:28:32.590Z,20.43
2019-04-01T18:31:01.552Z,22.70
2019-04-01T18:33:31.677Z,22.53
2019-04-01T18:36:01.567Z,22.70
2019-04-01T18:38:30.503Z,22.83
2019-04-01T18:40:59.437Z,22.90
2019-04-01T18:43:28.553Z,22.77
2019-04-01T18:45:57.517Z,23.00
2019-04-01T18:48:26.471Z,24.63
2019-04-01T18:50:55.536Z,24.87
2019-04-01T18:53:24.524Z,24.43
2019-04-01T18:55:53.549Z,22.53
2019-04-01T18:58:22.420Z,20.73
2019-04-01T19:00:51.532Z,22.27
2019-04-01T19:03:24.074Z,20.97
2019-04-01T19:05:52.853Z,21.37
2019-04-01T19:08:21.881Z,29.57
2019-04-01T19:11:01.805Z,21.93
2019-04-01T19:13:22.546Z,22.80
2019-04-01T19:15:53.542Z,23.03
2019-04-01T19:18:24.277Z,22.00
2019-04-01T19:20:56.984Z,22.67
2019-04-01T19:23:24.093Z,23.57
2019-04-01T19:25:53.226Z,22.73
2019-04-01T19:28:23.461Z,22.87
2019-04-01T19:30:53.373Z,23.97
2019-04-01T19:33:22.361Z,23.10
2019-04-01T19:35:51.474Z,23.10
2019-04-01T19:38:28.483Z,22.40
2019-04-01T19:40:59.785Z,23.10
2019-04-01T19:43:31.404Z,23.03
2019-04-01T19:46:01.534Z,22.83
2019-04-01T19:48:31.344Z,23.47
2019-04-01T19:51:01.237Z,21.70
2019-04-01T19:53:30.345Z,23.47
2019-04-01T19:55:59.353Z,21.70
2019-04-01T19:58:28.465Z,24.60
2019-04-01T20:00:57.572Z,25.90
2019-04-01T20:03:26.746Z,23.20
2019-04-01T20:05:56.902Z,26.47
2019-04-01T20:08:25.954Z,25.67
2019-04-01T20:10:54.962Z,24.03
2019-04-01T20:13:23.937Z,24.30
2019-04-01T20:15:52.883Z,26.60
2019-04-01T20:18:22.860Z,25.30
2019-04-01T20:20:52.064Z,24.35
2019-04-01T20:23:21.074Z,23.98
2019-04-01T20:25:50.235Z,24.77
2019-04-01T20:28:19.326Z,25.00
2019-04-01T20:30:48.405Z,24.82
2019-04-01T20:33:18.447Z,26.73
2019-04-01T20:35:48.144Z,27.27
2019-04-01T20:38:17.116Z,26.77
2019-04-01T20:40:46.223Z,27.50
2019-04-01T20:43:15.614Z,25.13
2019-04-01T20:45:45.765Z,28.87
2019-04-01T20:48:14.744Z,26.07
2019-04-01T20:50:43.841Z,28.90
2019-04-01T20:53:13.850Z,26.73
2019-04-01T20:55:48.377Z,27.10
2019-04-01T20:58:14.189Z,26.63
2019-04-01T21:00:43.520Z,27.13
2019-04-01T21:03:12.448Z,29.25
2019-04-01T21:05:41.449Z,28.47
2019-04-01T21:08:10.465Z,30.30
2019-04-01T21:10:39.546Z,27.97
2019-04-01T21:13:09.412Z,27.37
2019-04-01T21:15:38.383Z,27.10
2019-04-01T21:18:07.316Z,26.00
2019-04-01T21:20:36.179Z,28.30
2019-04-01T21:23:06.203Z,25.82
2019-04-01T21:25:36.068Z,25.97
2019-04-01T21:28:05.156Z,25.62
2019-04-01T21:30:34.249Z,28.07
2019-04-01T21:33:03.212Z,25.30
2019-04-01T21:35:32.184Z,26.37
2019-04-01T21:38:03.166Z,27.20
2019-04-01T21:40:33.109Z,28.00
2019-04-01T21:43:03.357Z,30.17
2019-04-01T21:45:32.602Z,28.85
2019-04-01T21:48:01.617Z,27.97
2019-04-01T21:50:35.032Z,27.90
2019-04-01T21:53:04.214Z,30.70
2019-04-01T21:55:33.297Z,27.42
2019-04-01T21:58:03.230Z,27.60
2019-04-01T22:00:50.396Z,26.30
2019-04-01T22:03:19.449Z,29.63
2019-04-01T22:05:48.505Z,28.63
2019-04-01T22:08:17.776Z,29.33
2019-04-01T22:10:46.996Z,28.53
2019-04-01T22:13:15.937Z,29.10
2019-04-01T22:15:46.535Z,27.80
2019-04-01T22:18:15.493Z,26.80
2019-04-01T22:20:44.516Z,26.65
2019-04-01T22:23:13.641Z,29.92
2019-04-01T22:25:42.560Z,28.60
2019-04-01T22:28:11.614Z,27.03
2019-04-01T22:30:40.633Z,29.40
2019-04-01T22:33:11.114Z,27.90
2019-04-01T22:35:41.569Z,26.83
2019-04-01T22:38:10.924Z,26.97
2019-04-01T22:40:39.957Z,27.93
2019-04-01T22:43:09.918Z,29.70
2019-04-01T22:45:38.990Z,28.52
2019-04-01T22:48:07.972Z,29.00
2019-04-01T22:50:37.054Z,28.20
2019-04-01T22:53:06.072Z,28.62
2019-04-01T22:55:35.068Z,28.02
2019-04-01T22:58:05.150Z,28.55
2019-04-01T23:00:34.246Z,27.22
2019-04-01T23:03:03.331Z,27.87
2019-04-01T23:05:32.361Z,28.98
2019-04-01T23:08:02.386Z,29.65
2019-04-01T23:10:31.756Z,29.75
2019-04-01T23:13:01.648Z,29.65
2019-04-01T23:15:30.648Z,28.43
2019-04-01T23:17:59.623Z,28.35
2019-04-01T23:20:29.537Z,28.47
2019-04-01T23:23:03.505Z,29.07
2019-04-01T23:25:32.435Z,30.60
2019-04-01T23:28:01.585Z,27.53
2019-04-01T23:30:30.733Z,27.43
2019-04-01T23:33:01.600Z,28.90
2019-04-01T23:35:30.613Z,29.75
2019-04-01T23:38:01.602Z,28.90
2019-04-01T23:40:32.443Z,30.90
2019-04-01T23:43:01.807Z,28.80
2019-04-01T23:45:30.836Z,30.30
2019-04-01T23:47:59.876Z,30.57
2019-04-01T23:50:28.945Z,31.00
2019-04-01T23:52:57.904Z,29.60
2019-04-01T23:55:26.840Z,30.35
2019-04-01T23:57:55.930Z,30.65
